sensor_id;sensor_type;location;lat;lon;timestamp;pressure;altitude;pressure_sealevel;temperature
33267;BMP180;19638;49.080;11.896;2023-01-04T00:04:01;97519.00;;;2.50
33267;BMP180;19638;49.080;11.896;2023-01-04T00:08:10;97510.00;;;2.50
33267;BMP180;19638;49.080;11.896;2023-01-04T00:16:44;97520.00;;;2.70
33267;BMP180;19638;49.080;11.896;2023-01-04T00:20:47;97505.00;;;2.80
33267;BMP180;19638;49.080;11.896;2023-01-04T00:24:53;97491.00;;;2.90
33267;BMP180;19638;49.080;11.896;2023-01-04T00:28:57;97498.00;;;2.90
33267;BMP180;19638;49.080;11.896;2023-01-04T00:37:35;97488.00;;;3.00
33267;BMP180;19638;49.080;11.896;2023-01-04T00:41:41;97478.00;;;3.00
33267;BMP180;19638;49.080;11.896;2023-01-04T00:46:22;97465.00;;;3.00
33267;BMP180;19638;49.080;11.896;2023-01-04T00:50:28;97465.00;;;3.10
33267;BMP180;19638;49.080;11.896;2023-01-04T00:54:34;97470.00;;;3.20
33267;BMP180;19638;49.080;11.896;2023-01-04T00:58:39;97472.00;;;3.30
33267;BMP180;19638;49.080;11.896;2023-01-04T01:02:42;97472.00;;;3.30
33267;BMP180;19638;49.080;11.896;2023-01-04T01:06:46;97473.00;;;3.40
33267;BMP180;19638;49.080;11.896;2023-01-04T01:10:52;97475.00;;;3.40
33267;BMP180;19638;49.080;11.896;2023-01-04T01:14:59;97487.00;;;3.50
33267;BMP180;19638;49.080;11.896;2023-01-04T01:19:34;97486.00;;;3.40
33267;BMP180;19638;49.080;11.896;2023-01-04T01:23:40;97493.00;;;3.50
33267;BMP180;19638;49.080;11.896;2023-01-04T01:27:44;97478.00;;;3.50
33267;BMP180;19638;49.080;11.896;2023-01-04T01:31:48;97481.00;;;3.60
33267;BMP180;19638;49.080;11.896;2023-01-04T01:36:25;97480.00;;;3.60
33267;BMP180;19638;49.080;11.896;2023-01-04T01:40:28;97466.00;;;3.60
33267;BMP180;19638;49.080;11.896;2023-01-04T01:45:06;97471.00;;;3.60
33267;BMP180;19638;49.080;11.896;2023-01-04T01:49:21;97465.00;;;3.60
33267;BMP180;19638;49.080;11.896;2023-01-04T01:53:50;97463.00;;;3.50
33267;BMP180;19638;49.080;11.896;2023-01-04T01:57:59;97458.00;;;3.50
33267;BMP180;19638;49.080;11.896;2023-01-04T02:02:34;97470.00;;;3.50
33267;BMP180;19638;49.080;11.896;2023-01-04T02:06:45;97477.00;;;3.50
33267;BMP180;19638;49.080;11.896;2023-01-04T02:11:15;97462.00;;;3.50
33267;BMP180;19638;49.080;11.896;2023-01-04T02:15:20;97464.00;;;3.60
33267;BMP180;19638;49.080;11.896;2023-01-04T02:20:00;97451.00;;;3.50
33267;BMP180;19638;49.080;11.896;2023-01-04T02:24:35;97447.00;;;3.60
33267;BMP180;19638;49.080;11.896;2023-01-04T02:29:04;97433.00;;;3.70
33267;BMP180;19638;49.080;11.896;2023-01-04T02:33:34;97428.00;;;3.70
33267;BMP180;19638;49.080;11.896;2023-01-04T02:37:44;97416.00;;;3.70
33267;BMP180;19638;49.080;11.896;2023-01-04T02:42:19;97421.00;;;3.60
33267;BMP180;19638;49.080;11.896;2023-01-04T02:46:27;97413.00;;;3.60
33267;BMP180;19638;49.080;11.896;2023-01-04T02:50:35;97418.00;;;3.70
33267;BMP180;19638;49.080;11.896;2023-01-04T02:54:42;97425.00;;;3.70
33267;BMP180;19638;49.080;11.896;2023-01-04T02:59:00;97415.00;;;3.70
33267;BMP180;19638;49.080;11.896;2023-01-04T03:03:14;97418.00;;;3.80
33267;BMP180;19638;49.080;11.896;2023-01-04T03:07:48;97418.00;;;3.80
33267;BMP180;19638;49.080;11.896;2023-01-04T03:11:57;97418.00;;;3.80
33267;BMP180;19638;49.080;11.896;2023-01-04T03:16:23;97424.00;;;3.80
33267;BMP180;19638;49.080;11.896;2023-01-04T03:20:28;97409.00;;;3.90
33267;BMP180;19638;49.080;11.896;2023-01-04T03:24:33;97402.00;;;4.00
33267;BMP180;19638;49.080;11.896;2023-01-04T03:28:58;97401.00;;;4.10
33267;BMP180;19638;49.080;11.896;2023-01-04T03:33:25;97399.00;;;4.20
33267;BMP180;19638;49.080;11.896;2023-01-04T03:37:52;97392.00;;;4.20
33267;BMP180;19638;49.080;11.896;2023-01-04T03:42:26;97381.00;;;4.20
33267;BMP180;19638;49.080;11.896;2023-01-04T03:46:51;97390.00;;;4.40
33267;BMP180;19638;49.080;11.896;2023-01-04T03:51:14;97390.00;;;4.40
33267;BMP180;19638;49.080;11.896;2023-01-04T03:55:21;97375.00;;;4.50
33267;BMP180;19638;49.080;11.896;2023-01-04T03:59:27;97358.00;;;4.60
33267;BMP180;19638;49.080;11.896;2023-01-04T04:03:31;97349.00;;;4.70
33267;BMP180;19638;49.080;11.896;2023-01-04T04:07:52;97343.00;;;4.70
33267;BMP180;19638;49.080;11.896;2023-01-04T04:12:13;97342.00;;;4.80
33267;BMP180;19638;49.080;11.896;2023-01-04T04:16:18;97342.00;;;4.80
33267;BMP180;19638;49.080;11.896;2023-01-04T04:20:21;97339.00;;;4.70
33267;BMP180;19638;49.080;11.896;2023-01-04T04:24:27;97339.00;;;4.70
33267;BMP180;19638;49.080;11.896;2023-01-04T04:28:30;97350.00;;;4.70
33267;BMP180;19638;49.080;11.896;2023-01-04T04:32:35;97342.00;;;4.70
33267;BMP180;19638;49.080;11.896;2023-01-04T04:36:43;97345.00;;;4.60
33267;BMP180;19638;49.080;11.896;2023-01-04T04:40:48;97339.00;;;4.60
33267;BMP180;19638;49.080;11.896;2023-01-04T04:45:09;97345.00;;;4.60
33267;BMP180;19638;49.080;11.896;2023-01-04T04:49:14;97336.00;;;4.60
33267;BMP180;19638;49.080;11.896;2023-01-04T04:53:18;97332.00;;;4.70
33267;BMP180;19638;49.080;11.896;2023-01-04T04:57:24;97324.00;;;4.70
33267;BMP180;19638;49.080;11.896;2023-01-04T05:01:32;97327.00;;;4.80
33267;BMP180;19638;49.080;11.896;2023-01-04T05:05:37;97336.00;;;4.80
33267;BMP180;19638;49.080;11.896;2023-01-04T05:09:40;97331.00;;;4.90
33267;BMP180;19638;49.080;11.896;2023-01-04T05:13:45;97324.00;;;5.00
33267;BMP180;19638;49.080;11.896;2023-01-04T05:17:51;97322.00;;;5.00
33267;BMP180;19638;49.080;11.896;2023-01-04T05:21:57;97329.00;;;5.10
33267;BMP180;19638;49.080;11.896;2023-01-04T05:26:03;97328.00;;;5.10
33267;BMP180;19638;49.080;11.896;2023-01-04T05:30:09;97323.00;;;5.10
33267;BMP180;19638;49.080;11.896;2023-01-04T05:34:30;97320.00;;;5.20
33267;BMP180;19638;49.080;11.896;2023-01-04T05:38:37;97331.00;;;5.20
33267;BMP180;19638;49.080;11.896;2023-01-04T05:42:40;97333.00;;;5.20
33267;BMP180;19638;49.080;11.896;2023-01-04T05:46:46;97326.00;;;5.20
33267;BMP180;19638;49.080;11.896;2023-01-04T05:50:49;97323.00;;;5.30
33267;BMP180;19638;49.080;11.896;2023-01-04T05:54:59;97326.00;;;5.30
33267;BMP180;19638;49.080;11.896;2023-01-04T05:59:06;97326.00;;;5.40
33267;BMP180;19638;49.080;11.896;2023-01-04T06:03:09;97314.00;;;5.40
33267;BMP180;19638;49.080;11.896;2023-01-04T06:07:14;97308.00;;;5.40
33267;BMP180;19638;49.080;11.896;2023-01-04T06:11:18;97301.00;;;5.40
33267;BMP180;19638;49.080;11.896;2023-01-04T06:15:29;97290.00;;;5.50
33267;BMP180;19638;49.080;11.896;2023-01-04T06:19:43;97287.00;;;5.50
33267;BMP180;19638;49.080;11.896;2023-01-04T06:23:46;97289.00;;;5.50
33267;BMP180;19638;49.080;11.896;2023-01-04T06:27:51;97287.00;;;5.60
33267;BMP180;19638;49.080;11.896;2023-01-04T06:31:54;97291.00;;;5.60
33267;BMP180;19638;49.080;11.896;2023-01-04T06:36:00;97291.00;;;5.60
33267;BMP180;19638;49.080;11.896;2023-01-04T06:40:04;97299.00;;;5.70
33267;BMP180;19638;49.080;11.896;2023-01-04T06:44:09;97294.00;;;5.70
33267;BMP180;19638;49.080;11.896;2023-01-04T06:48:16;97299.00;;;5.70
33267;BMP180;19638;49.080;11.896;2023-01-04T06:52:21;97303.00;;;5.80
33267;BMP180;19638;49.080;11.896;2023-01-04T06:56:25;97293.00;;;5.80
33267;BMP180;19638;49.080;11.896;2023-01-04T07:00:30;97292.00;;;5.80
33267;BMP180;19638;49.080;11.896;2023-01-04T07:04:35;97284.00;;;5.80
33267;BMP180;19638;49.080;11.896;2023-01-04T07:08:38;97285.00;;;5.90
33267;BMP180;19638;49.080;11.896;2023-01-04T07:12:42;97283.00;;;5.90
33267;BMP180;19638;49.080;11.896;2023-01-04T07:16:48;97280.00;;;5.90
33267;BMP180;19638;49.080;11.896;2023-01-04T07:20:53;97279.00;;;5.90
33267;BMP180;19638;49.080;11.896;2023-01-04T07:24:59;97278.00;;;6.00
33267;BMP180;19638;49.080;11.896;2023-01-04T07:29:02;97285.00;;;6.00
33267;BMP180;19638;49.080;11.896;2023-01-04T07:33:19;97249.00;;;6.10
33267;BMP180;19638;49.080;11.896;2023-01-04T07:37:25;97252.00;;;6.10
33267;BMP180;19638;49.080;11.896;2023-01-04T07:41:30;97257.00;;;6.10
33267;BMP180;19638;49.080;11.896;2023-01-04T07:45:34;97259.00;;;6.20
33267;BMP180;19638;49.080;11.896;2023-01-04T07:49:41;97259.00;;;6.20
33267;BMP180;19638;49.080;11.896;2023-01-04T07:53:45;97256.00;;;6.20
33267;BMP180;19638;49.080;11.896;2023-01-04T07:57:48;97261.00;;;6.20
33267;BMP180;19638;49.080;11.896;2023-01-04T08:01:51;97254.00;;;6.20
33267;BMP180;19638;49.080;11.896;2023-01-04T08:05:56;97244.00;;;6.30
33267;BMP180;19638;49.080;11.896;2023-01-04T08:10:02;97240.00;;;6.40
33267;BMP180;19638;49.080;11.896;2023-01-04T08:14:09;97248.00;;;6.40
33267;BMP180;19638;49.080;11.896;2023-01-04T08:18:14;97246.00;;;6.50
33267;BMP180;19638;49.080;11.896;2023-01-04T08:22:26;97246.00;;;6.70
33267;BMP180;19638;49.080;11.896;2023-01-04T08:26:32;97238.00;;;6.80
33267;BMP180;19638;49.080;11.896;2023-01-04T08:30:35;97231.00;;;6.90
33267;BMP180;19638;49.080;11.896;2023-01-04T08:34:41;97229.00;;;7.10
33267;BMP180;19638;49.080;11.896;2023-01-04T08:38:51;97226.00;;;7.10
33267;BMP180;19638;49.080;11.896;2023-01-04T08:43:04;97225.00;;;7.20
33267;BMP180;19638;49.080;11.896;2023-01-04T08:47:10;97223.00;;;7.30
33267;BMP180;19638;49.080;11.896;2023-01-04T08:51:14;97211.00;;;7.40
33267;BMP180;19638;49.080;11.896;2023-01-04T08:55:19;97193.00;;;7.60
33267;BMP180;19638;49.080;11.896;2023-01-04T08:59:24;97208.00;;;7.70
33267;BMP180;19638;49.080;11.896;2023-01-04T09:03:28;97193.00;;;7.80
33267;BMP180;19638;49.080;11.896;2023-01-04T09:07:32;97193.00;;;7.80
33267;BMP180;19638;49.080;11.896;2023-01-04T09:11:37;97191.00;;;7.90
33267;BMP180;19638;49.080;11.896;2023-01-04T09:15:40;97191.00;;;7.90
33267;BMP180;19638;49.080;11.896;2023-01-04T09:19:43;97189.00;;;7.90
33267;BMP180;19638;49.080;11.896;2023-01-04T09:23:47;97179.00;;;7.90
33267;BMP180;19638;49.080;11.896;2023-01-04T09:27:51;97171.00;;;7.80
33267;BMP180;19638;49.080;11.896;2023-01-04T09:31:54;97171.00;;;7.70
33267;BMP180;19638;49.080;11.896;2023-01-04T09:36:00;97169.00;;;7.80
33267;BMP180;19638;49.080;11.896;2023-01-04T09:40:08;97156.00;;;7.80
33267;BMP180;19638;49.080;11.896;2023-01-04T09:44:18;97148.00;;;7.90
33267;BMP180;19638;49.080;11.896;2023-01-04T09:48:47;97156.00;;;7.90
33267;BMP180;19638;49.080;11.896;2023-01-04T09:52:59;97145.00;;;7.90
33267;BMP180;19638;49.080;11.896;2023-01-04T09:57:08;97141.00;;;8.00
33267;BMP180;19638;49.080;11.896;2023-01-04T10:01:20;97141.00;;;8.00
33267;BMP180;19638;49.080;11.896;2023-01-04T10:05:26;97139.00;;;8.10
33267;BMP180;19638;49.080;11.896;2023-01-04T10:09:30;97128.00;;;8.10
33267;BMP180;19638;49.080;11.896;2023-01-04T10:13:46;97126.00;;;8.10
33267;BMP180;19638;49.080;11.896;2023-01-04T10:18:05;97124.00;;;8.10
33267;BMP180;19638;49.080;11.896;2023-01-04T10:22:37;97114.00;;;8.10
33267;BMP180;19638;49.080;11.896;2023-01-04T10:26:45;97106.00;;;8.00
33267;BMP180;19638;49.080;11.896;2023-01-04T10:30:54;97098.00;;;7.90
33267;BMP180;19638;49.080;11.896;2023-01-04T10:35:26;97077.00;;;7.80
33267;BMP180;19638;49.080;11.896;2023-01-04T10:39:31;97086.00;;;7.80
33267;BMP180;19638;49.080;11.896;2023-01-04T10:43:40;97081.00;;;7.80
33267;BMP180;19638;49.080;11.896;2023-01-04T10:48:14;97068.00;;;7.80
33267;BMP180;19638;49.080;11.896;2023-01-04T10:52:29;97048.00;;;7.80
33267;BMP180;19638;49.080;11.896;2023-01-04T10:56:49;97061.00;;;7.80
33267;BMP180;19638;49.080;11.896;2023-01-04T11:01:03;97054.00;;;7.70
33267;BMP180;19638;49.080;11.896;2023-01-04T11:05:15;97050.00;;;7.70
33267;BMP180;19638;49.080;11.896;2023-01-04T11:09:25;97052.00;;;7.70
33267;BMP180;19638;49.080;11.896;2023-01-04T11:13:29;97051.00;;;7.70
33267;BMP180;19638;49.080;11.896;2023-01-04T11:17:34;97031.00;;;7.80
33267;BMP180;19638;49.080;11.896;2023-01-04T11:21:43;97034.00;;;7.90
33267;BMP180;19638;49.080;11.896;2023-01-04T11:26:05;97027.00;;;8.00
33267;BMP180;19638;49.080;11.896;2023-01-04T11:30:16;97028.00;;;8.10
33267;BMP180;19638;49.080;11.896;2023-01-04T11:34:42;97015.00;;;8.20
33267;BMP180;19638;49.080;11.896;2023-01-04T11:38:54;97011.00;;;8.20
33267;BMP180;19638;49.080;11.896;2023-01-04T11:43:14;97011.00;;;8.30
33267;BMP180;19638;49.080;11.896;2023-01-04T11:47:21;96998.00;;;8.30
33267;BMP180;19638;49.080;11.896;2023-01-04T11:51:36;96990.00;;;8.30
33267;BMP180;19638;49.080;11.896;2023-01-04T11:55:40;96977.00;;;8.30
33267;BMP180;19638;49.080;11.896;2023-01-04T12:00:06;96974.00;;;8.30
33267;BMP180;19638;49.080;11.896;2023-01-04T12:04:13;96983.00;;;8.30
33267;BMP180;19638;49.080;11.896;2023-01-04T12:08:26;96976.00;;;8.40
33267;BMP180;19638;49.080;11.896;2023-01-04T12:12:32;96974.00;;;8.40
33267;BMP180;19638;49.080;11.896;2023-01-04T12:16:47;96957.00;;;8.50
33267;BMP180;19638;49.080;11.896;2023-01-04T12:20:53;96972.00;;;8.60
33267;BMP180;19638;49.080;11.896;2023-01-04T12:24:57;96957.00;;;8.70
33267;BMP180;19638;49.080;11.896;2023-01-04T12:29:38;96932.00;;;8.80
33267;BMP180;19638;49.080;11.896;2023-01-04T12:33:44;96910.00;;;8.90
33267;BMP180;19638;49.080;11.896;2023-01-04T12:37:48;96902.00;;;9.00
33267;BMP180;19638;49.080;11.896;2023-01-04T12:42:20;96901.00;;;9.10
33267;BMP180;19638;49.080;11.896;2023-01-04T12:46:50;96913.00;;;9.10
33267;BMP180;19638;49.080;11.896;2023-01-04T12:51:19;96907.00;;;9.30
33267;BMP180;19638;49.080;11.896;2023-01-04T12:55:57;96902.00;;;9.30
33267;BMP180;19638;49.080;11.896;2023-01-04T13:00:05;96898.00;;;9.30
33267;BMP180;19638;49.080;11.896;2023-01-04T13:04:32;96893.00;;;9.40
33267;BMP180;19638;49.080;11.896;2023-01-04T13:08:41;96895.00;;;9.50
33267;BMP180;19638;49.080;11.896;2023-01-04T13:13:00;96908.00;;;9.50
33267;BMP180;19638;49.080;11.896;2023-01-04T13:17:18;96896.00;;;9.60
33267;BMP180;19638;49.080;11.896;2023-01-04T13:21:26;96900.00;;;9.60
33267;BMP180;19638;49.080;11.896;2023-01-04T13:25:35;96899.00;;;9.70
33267;BMP180;19638;49.080;11.896;2023-01-04T13:29:44;96891.00;;;9.70
33267;BMP180;19638;49.080;11.896;2023-01-04T13:33:47;96886.00;;;9.70
33267;BMP180;19638;49.080;11.896;2023-01-04T13:37:51;96871.00;;;9.70
33267;BMP180;19638;49.080;11.896;2023-01-04T13:41:56;96869.00;;;9.70
33267;BMP180;19638;49.080;11.896;2023-01-04T13:46:12;96859.00;;;9.70
33267;BMP180;19638;49.080;11.896;2023-01-04T13:50:25;96866.00;;;9.80
33267;BMP180;19638;49.080;11.896;2023-01-04T13:54:32;96864.00;;;9.80
33267;BMP180;19638;49.080;11.896;2023-01-04T13:58:50;96855.00;;;9.80
33267;BMP180;19638;49.080;11.896;2023-01-04T14:03:17;96842.00;;;9.90
33267;BMP180;19638;49.080;11.896;2023-01-04T14:07:25;96835.00;;;9.90
33267;BMP180;19638;49.080;11.896;2023-01-04T14:11:31;96825.00;;;9.90
33267;BMP180;19638;49.080;11.896;2023-01-04T14:16:13;96832.00;;;9.80
33267;BMP180;19638;49.080;11.896;2023-01-04T14:20:34;96828.00;;;9.80
33267;BMP180;19638;49.080;11.896;2023-01-04T14:24:39;96809.00;;;9.80
33267;BMP180;19638;49.080;11.896;2023-01-04T14:29:20;96814.00;;;9.80
33267;BMP180;19638;49.080;11.896;2023-01-04T14:33:30;96810.00;;;9.80
33267;BMP180;19638;49.080;11.896;2023-01-04T14:37:33;96825.00;;;9.80
33267;BMP180;19638;49.080;11.896;2023-01-04T14:41:38;96807.00;;;9.80
33267;BMP180;19638;49.080;11.896;2023-01-04T14:45:42;96826.00;;;9.80
33267;BMP180;19638;49.080;11.896;2023-01-04T14:49:52;96813.00;;;9.80
33267;BMP180;19638;49.080;11.896;2023-01-04T14:53:57;96820.00;;;9.80
33267;BMP180;19638;49.080;11.896;2023-01-04T14:58:00;96831.00;;;9.80
33267;BMP180;19638;49.080;11.896;2023-01-04T15:02:03;96818.00;;;9.80
33267;BMP180;19638;49.080;11.896;2023-01-04T15:06:13;96819.00;;;9.80
33267;BMP180;19638;49.080;11.896;2023-01-04T15:10:22;96817.00;;;9.80
33267;BMP180;19638;49.080;11.896;2023-01-04T15:14:28;96808.00;;;9.90
33267;BMP180;19638;49.080;11.896;2023-01-04T15:18:31;96823.00;;;9.90
33267;BMP180;19638;49.080;11.896;2023-01-04T15:22:38;96819.00;;;9.90
33267;BMP180;19638;49.080;11.896;2023-01-04T15:26:42;96809.00;;;10.00
33267;BMP180;19638;49.080;11.896;2023-01-04T15:30:50;96803.00;;;10.00
33267;BMP180;19638;49.080;11.896;2023-01-04T15:34:57;96807.00;;;10.00
33267;BMP180;19638;49.080;11.896;2023-01-04T15:39:01;96794.00;;;10.00
33267;BMP180;19638;49.080;11.896;2023-01-04T15:43:08;96803.00;;;10.00
33267;BMP180;19638;49.080;11.896;2023-01-04T15:47:12;96799.00;;;10.00
33267;BMP180;19638;49.080;11.896;2023-01-04T15:51:15;96783.00;;;10.00
33267;BMP180;19638;49.080;11.896;2023-01-04T15:55:39;96781.00;;;10.00
33267;BMP180;19638;49.080;11.896;2023-01-04T15:59:49;96785.00;;;10.00
33267;BMP180;19638;49.080;11.896;2023-01-04T16:03:52;96758.00;;;10.00
33267;BMP180;19638;49.080;11.896;2023-01-04T16:12:55;96736.00;;;9.90
33267;BMP180;19638;49.080;11.896;2023-01-04T16:17:02;96731.00;;;9.80
33267;BMP180;19638;49.080;11.896;2023-01-04T16:21:06;96731.00;;;9.80
33267;BMP180;19638;49.080;11.896;2023-01-04T16:25:10;96710.00;;;9.90
33267;BMP180;19638;49.080;11.896;2023-01-04T16:29:16;96704.00;;;9.90
33267;BMP180;19638;49.080;11.896;2023-01-04T16:33:50;96701.00;;;9.90
33267;BMP180;19638;49.080;11.896;2023-01-04T16:37:58;96695.00;;;9.50
33267;BMP180;19638;49.080;11.896;2023-01-04T16:42:03;96698.00;;;9.40
33267;BMP180;19638;49.080;11.896;2023-01-04T16:46:23;96699.00;;;9.40
33267;BMP180;19638;49.080;11.896;2023-01-04T16:50:29;96688.00;;;9.60
33267;BMP180;19638;49.080;11.896;2023-01-04T16:54:32;96704.00;;;9.70
33267;BMP180;19638;49.080;11.896;2023-01-04T16:58:38;96697.00;;;9.80
33267;BMP180;19638;49.080;11.896;2023-01-04T17:03:19;96700.00;;;9.50
33267;BMP180;19638;49.080;11.896;2023-01-04T17:07:23;96695.00;;;9.30
33267;BMP180;19638;49.080;11.896;2023-01-04T17:11:37;96701.00;;;9.20
33267;BMP180;19638;49.080;11.896;2023-01-04T17:16:01;96701.00;;;9.10
33267;BMP180;19638;49.080;11.896;2023-01-04T17:20:07;96694.00;;;9.10
33267;BMP180;19638;49.080;11.896;2023-01-04T17:24:10;96689.00;;;9.10
33267;BMP180;19638;49.080;11.896;2023-01-04T17:28:18;96696.00;;;9.10
33267;BMP180;19638;49.080;11.896;2023-01-04T17:32:25;96693.00;;;9.10
33267;BMP180;19638;49.080;11.896;2023-01-04T17:37:04;96680.00;;;9.00
33267;BMP180;19638;49.080;11.896;2023-01-04T17:41:08;96688.00;;;9.00
33267;BMP180;19638;49.080;11.896;2023-01-04T17:45:42;96685.00;;;8.90
33267;BMP180;19638;49.080;11.896;2023-01-04T17:49:46;96681.00;;;8.90
33267;BMP180;19638;49.080;11.896;2023-01-04T17:53:54;96681.00;;;8.80
33267;BMP180;19638;49.080;11.896;2023-01-04T17:58:00;96668.00;;;8.80
33267;BMP180;19638;49.080;11.896;2023-01-04T18:02:34;96663.00;;;8.80
33267;BMP180;19638;49.080;11.896;2023-01-04T18:06:39;96667.00;;;8.90
33267;BMP180;19638;49.080;11.896;2023-01-04T18:10:49;96667.00;;;8.90
33267;BMP180;19638;49.080;11.896;2023-01-04T18:15:10;96654.00;;;9.00
33267;BMP180;19638;49.080;11.896;2023-01-04T18:19:20;96648.00;;;9.00
33267;BMP180;19638;49.080;11.896;2023-01-04T18:23:51;96641.00;;;9.10
33267;BMP180;19638;49.080;11.896;2023-01-04T18:28:15;96648.00;;;9.10
33267;BMP180;19638;49.080;11.896;2023-01-04T18:32:49;96648.00;;;9.20
33267;BMP180;19638;49.080;11.896;2023-01-04T18:36:53;96645.00;;;9.20
33267;BMP180;19638;49.080;11.896;2023-01-04T18:46:09;96638.00;;;9.10
33267;BMP180;19638;49.080;11.896;2023-01-04T18:50:43;96638.00;;;9.10
33267;BMP180;19638;49.080;11.896;2023-01-04T18:54:49;96626.00;;;9.20
33267;BMP180;19638;49.080;11.896;2023-01-04T18:59:23;96629.00;;;9.30
33267;BMP180;19638;49.080;11.896;2023-01-04T19:04:02;96620.00;;;9.40
33267;BMP180;19638;49.080;11.896;2023-01-04T19:08:37;96608.00;;;9.50
33267;BMP180;19638;49.080;11.896;2023-01-04T19:13:12;96622.00;;;9.50
33267;BMP180;19638;49.080;11.896;2023-01-04T19:17:19;96604.00;;;9.60
33267;BMP180;19638;49.080;11.896;2023-01-04T19:21:57;96599.00;;;9.60
33267;BMP180;19638;49.080;11.896;2023-01-04T19:26:05;96601.00;;;9.60
33267;BMP180;19638;49.080;11.896;2023-01-04T19:30:36;96595.00;;;9.60
33267;BMP180;19638;49.080;11.896;2023-01-04T19:35:13;96589.00;;;9.60
33267;BMP180;19638;49.080;11.896;2023-01-04T19:44:27;96583.00;;;9.60
33267;BMP180;19638;49.080;11.896;2023-01-04T19:49:04;96578.00;;;9.70
33267;BMP180;19638;49.080;11.896;2023-01-04T19:53:15;96588.00;;;9.70
33267;BMP180;19638;49.080;11.896;2023-01-04T19:57:21;96589.00;;;9.80
33267;BMP180;19638;49.080;11.896;2023-01-04T20:01:56;96591.00;;;9.80
33267;BMP180;19638;49.080;11.896;2023-01-04T20:06:00;96596.00;;;9.90
33267;BMP180;19638;49.080;11.896;2023-01-04T20:10:36;96587.00;;;9.90
33267;BMP180;19638;49.080;11.896;2023-01-04T20:14:39;96571.00;;;10.00
33267;BMP180;19638;49.080;11.896;2023-01-04T20:18:44;96566.00;;;10.10
33267;BMP180;19638;49.080;11.896;2023-01-04T20:23:21;96565.00;;;10.20
33267;BMP180;19638;49.080;11.896;2023-01-04T20:27:24;96577.00;;;10.30
33267;BMP180;19638;49.080;11.896;2023-01-04T20:32:04;96576.00;;;10.30
33267;BMP180;19638;49.080;11.896;2023-01-04T20:36:16;96560.00;;;10.40
33267;BMP180;19638;49.080;11.896;2023-01-04T20:40:44;96561.00;;;10.40
33267;BMP180;19638;49.080;11.896;2023-01-04T20:44:49;96568.00;;;10.50
33267;BMP180;19638;49.080;11.896;2023-01-04T20:49:24;96573.00;;;10.50
33267;BMP180;19638;49.080;11.896;2023-01-04T20:54:02;96568.00;;;10.60
33267;BMP180;19638;49.080;11.896;2023-01-04T20:58:36;96575.00;;;10.60
33267;BMP180;19638;49.080;11.896;2023-01-04T21:02:39;96564.00;;;10.60
33267;BMP180;19638;49.080;11.896;2023-01-04T21:06:43;96575.00;;;10.60
33267;BMP180;19638;49.080;11.896;2023-01-04T21:10:49;96568.00;;;10.60
33267;BMP180;19638;49.080;11.896;2023-01-04T21:15:22;96566.00;;;10.60
33267;BMP180;19638;49.080;11.896;2023-01-04T21:19:26;96555.00;;;10.70
33267;BMP180;19638;49.080;11.896;2023-01-04T21:23:29;96546.00;;;10.70
33267;BMP180;19638;49.080;11.896;2023-01-04T21:28:07;96561.00;;;10.60
33267;BMP180;19638;49.080;11.896;2023-01-04T21:32:13;96565.00;;;10.50
33267;BMP180;19638;49.080;11.896;2023-01-04T21:36:20;96569.00;;;10.50
33267;BMP180;19638;49.080;11.896;2023-01-04T21:40:24;96550.00;;;10.60
33267;BMP180;19638;49.080;11.896;2023-01-04T21:44:29;96548.00;;;10.60
33267;BMP180;19638;49.080;11.896;2023-01-04T21:48:34;96546.00;;;10.60
33267;BMP180;19638;49.080;11.896;2023-01-04T21:52:40;96571.00;;;10.70
33267;BMP180;19638;49.080;11.896;2023-01-04T21:56:43;96568.00;;;10.70
33267;BMP180;19638;49.080;11.896;2023-01-04T22:01:24;96567.00;;;10.80
33267;BMP180;19638;49.080;11.896;2023-01-04T22:05:35;96559.00;;;10.80
33267;BMP180;19638;49.080;11.896;2023-01-04T22:09:38;96546.00;;;10.80
33267;BMP180;19638;49.080;11.896;2023-01-04T22:13:41;96546.00;;;10.90
33267;BMP180;19638;49.080;11.896;2023-01-04T22:17:49;96538.00;;;10.90
33267;BMP180;19638;49.080;11.896;2023-01-04T22:21:52;96536.00;;;10.90
33267;BMP180;19638;49.080;11.896;2023-01-04T22:25:56;96540.00;;;11.00
33267;BMP180;19638;49.080;11.896;2023-01-04T22:29:59;96541.00;;;11.00
33267;BMP180;19638;49.080;11.896;2023-01-04T22:34:04;96533.00;;;11.00
33267;BMP180;19638;49.080;11.896;2023-01-04T22:38:39;96537.00;;;11.00
33267;BMP180;19638;49.080;11.896;2023-01-04T22:42:42;96509.00;;;11.00
33267;BMP180;19638;49.080;11.896;2023-01-04T22:46:45;96503.00;;;11.10
33267;BMP180;19638;49.080;11.896;2023-01-04T22:50:50;96514.00;;;11.10
33267;BMP180;19638;49.080;11.896;2023-01-04T22:54:53;96524.00;;;11.10
33267;BMP180;19638;49.080;11.896;2023-01-04T22:58:58;96533.00;;;11.10
33267;BMP180;19638;49.080;11.896;2023-01-04T23:03:06;96521.00;;;11.10
33267;BMP180;19638;49.080;11.896;2023-01-04T23:11:43;96525.00;;;11.20
33267;BMP180;19638;49.080;11.896;2023-01-04T23:15:52;96510.00;;;11.20
33267;BMP180;19638;49.080;11.896;2023-01-04T23:19:56;96509.00;;;11.20
33267;BMP180;19638;49.080;11.896;2023-01-04T23:23:59;96525.00;;;11.20
33267;BMP180;19638;49.080;11.896;2023-01-04T23:28:04;96516.00;;;11.30
33267;BMP180;19638;49.080;11.896;2023-01-04T23:32:07;96515.00;;;11.30
33267;BMP180;19638;49.080;11.896;2023-01-04T23:36:19;96512.00;;;11.30
33267;BMP180;19638;49.080;11.896;2023-01-04T23:40:22;96518.00;;;11.40
33267;BMP180;19638;49.080;11.896;2023-01-04T23:44:27;96524.00;;;11.40
33267;BMP180;19638;49.080;11.896;2023-01-04T23:48:34;96510.00;;;11.40
33267;BMP180;19638;49.080;11.896;2023-01-04T23:52:38;96512.00;;;11.40
33267;BMP180;19638;49.080;11.896;2023-01-04T23:56:46;96499.00;;;11.40
